Time;durP1;ratioP1;P1;durP2;ratioP2;P2;SDS_P1;SDS_P2;PMS_P1;PMS_P2;Temp;Humidity;BMP_temperature;BMP_pressure;BME280_temperature;BME280_humidity;BME280_pressure;Samples;Min_cycle;Max_cycle;Signal;HPM_P1;HPM_P2
2021/03/19 00:01:52;;;;;;;5.68;2.50;;;;;;;11.24;65.24;101206.66;6304821;22;20023;-76
2021/03/19 00:04:17;;;;;;;2.90;2.70;;;;;;;11.27;65.11;101194.38;6304344;22;20003;-75
2021/03/19 00:06:43;;;;;;;2.67;2.58;;;;;;;11.25;64.80;101196.53;6305920;22;20003;-75
2021/03/19 00:09:10;;;;;;;2.60;2.40;;;;;;;11.22;64.55;101203.34;6300025;22;20008;-73
2021/03/19 00:11:37;;;;;;;2.47;2.28;;;;;;;11.25;65.42;101208.31;6280578;22;20004;-74
2021/03/19 00:14:03;;;;;;;3.55;2.65;;;;;;;11.25;65.11;101202.84;6306996;22;20429;-74
2021/03/19 00:16:29;;;;;;;3.78;3.45;;;;;;;11.23;65.01;101199.53;6296783;22;20007;-75
2021/03/19 00:18:54;;;;;;;4.22;3.53;;;;;;;11.18;65.15;101202.19;6306335;22;20000;-74
2021/03/19 00:21:20;;;;;;;3.72;2.90;;;;;;;11.21;65.41;101196.19;6296405;22;20008;-74
2021/03/19 00:23:46;;;;;;;4.15;3.95;;;;;;;11.21;65.25;101201.69;6304221;22;20003;-74
2021/03/19 00:26:11;;;;;;;4.15;3.95;;;;;;;11.19;65.71;101198.38;6281588;22;20013;-74
2021/03/19 00:28:37;;;;;;;5.28;4.88;;;;;;;11.20;65.84;101193.72;6295902;22;20758;-73
2021/03/19 00:31:02;;;;;;;4.38;4.18;;;;;;;11.16;66.14;101199.69;6308800;22;20003;-75
2021/03/19 00:33:27;;;;;;;4.47;4.28;;;;;;;11.19;66.16;101203.84;6282934;22;20330;-73
2021/03/19 00:35:53;;;;;;;4.15;3.95;;;;;;;11.20;65.92;101204.66;6308303;22;20013;-75
2021/03/19 00:38:18;;;;;;;4.60;4.13;;;;;;;11.20;66.23;101208.25;6276859;22;20027;-75
2021/03/19 00:40:44;;;;;;;4.93;4.63;;;;;;;11.22;65.88;101210.75;6299853;22;20000;-75
2021/03/19 00:43:12;;;;;;;5.38;4.95;;;;;;;11.22;66.36;101216.22;6281215;22;20011;-75
2021/03/19 00:45:38;;;;;;;4.50;4.30;;;;;;;11.26;66.20;101218.19;6296580;22;20003;-76
2021/03/19 00:48:04;;;;;;;5.57;5.22;;;;;;;11.28;65.99;101212.47;6310386;22;20136;-75
2021/03/19 00:50:33;;;;;;;7.38;5.80;;;;;;;11.29;66.16;101204.00;6304954;22;20037;-75
2021/03/19 00:53:01;;;;;;;5.18;4.88;;;;;;;11.27;66.19;101217.13;6300949;22;20003;-75
2021/03/19 00:55:26;;;;;;;6.55;6.03;;;;;;;11.31;65.40;101220.16;6308379;22;20068;-74
2021/03/19 00:57:52;;;;;;;5.85;5.28;;;;;;;11.24;66.44;101209.38;6279763;22;20015;-75
2021/03/19 01:00:20;;;;;;;7.53;6.90;;;;;;;11.18;66.20;101204.91;6304484;22;20010;-75
2021/03/19 01:02:45;;;;;;;7.28;6.78;;;;;;;11.24;66.37;101217.59;6279305;22;20019;-73
2021/03/19 01:05:16;;;;;;;7.28;6.57;;;;;;;11.25;66.42;101222.00;6273841;22;20449;-73
2021/03/19 01:07:43;;;;;;;7.57;6.78;;;;;;;11.26;66.20;101220.94;6305493;22;20003;-74
2021/03/19 01:10:12;;;;;;;7.68;7.07;;;;;;;11.28;66.50;101229.72;6277995;22;20341;-75
2021/03/19 01:12:38;;;;;;;7.07;6.63;;;;;;;11.28;66.27;101229.72;6307779;22;20006;-75
2021/03/19 01:15:06;;;;;;;7.05;6.65;;;;;;;11.28;66.60;101229.72;6277944;22;20090;-73
2021/03/19 01:17:32;;;;;;;10.45;8.68;;;;;;;11.29;66.63;101223.16;6309394;22;20485;-75
2021/03/19 01:19:58;;;;;;;8.77;7.97;;;;;;;11.28;67.03;101226.97;6304784;22;19999;-74
2021/03/19 01:22:23;;;;;;;8.75;7.85;;;;;;;11.26;67.53;101220.94;6308289;22;20031;-75
2021/03/19 01:24:49;;;;;;;8.93;8.25;;;;;;;11.24;67.61;101234.03;6257251;22;20330;-74
2021/03/19 01:27:14;;;;;;;10.85;8.65;;;;;;;11.24;67.62;101225.00;6305660;22;20003;-75
2021/03/19 01:29:39;;;;;;;12.23;8.75;;;;;;;11.20;67.93;101230.16;6307987;22;20422;-74
2021/03/19 01:32:05;;;;;;;9.90;8.95;;;;;;;11.15;68.21;101222.66;6305644;22;20061;-75
2021/03/19 01:34:31;;;;;;;10.70;9.95;;;;;;;11.13;68.27;101226.75;6254093;22;20386;-74
2021/03/19 01:36:56;;;;;;;10.23;8.57;;;;;;;11.12;67.95;101225.91;6277963;22;20073;-74
2021/03/19 01:39:22;;;;;;;14.73;9.82;;;;;;;11.13;68.44;101232.22;6278294;22;20352;-75
2021/03/19 01:41:49;;;;;;;9.38;8.18;;;;;;;11.14;68.15;101228.41;6305836;22;20392;-75
2021/03/19 01:44:25;;;;;;;9.07;8.35;;;;;;;11.16;68.01;101227.06;6280022;22;20035;-75
2021/03/19 01:47:28;;;;;;;10.00;9.18;;;;;;;11.17;68.35;101233.41;6303457;22;20050;-77
2021/03/19 01:50:32;;;;;;;8.20;7.70;;;;;;;11.16;68.09;101231.72;6309046;22;20015;-77
2021/03/19 01:53:35;;;;;;;9.88;9.18;;;;;;;11.13;68.56;101233.06;6306354;22;19995;-78
2021/03/19 01:56:38;;;;;;;13.63;10.13;;;;;;;11.10;68.75;101241.78;6285791;22;20003;-76
2021/03/19 01:59:41;;;;;;;11.50;10.38;;;;;;;11.05;68.79;101238.13;6308068;22;20003;-75
2021/03/19 02:02:43;;;;;;;10.02;9.02;;;;;;;11.04;69.13;101239.19;6305467;22;20019;-75
2021/03/19 02:05:46;;;;;;;11.35;8.80;;;;;;;11.07;69.27;101247.75;6305983;22;19995;-76
2021/03/19 02:08:49;;;;;;;9.77;8.07;;;;;;;11.11;69.38;101239.84;6305915;22;19999;-76
2021/03/19 02:11:52;;;;;;;9.57;8.77;;;;;;;11.12;68.87;101238.78;6310270;22;20318;-78
2021/03/19 02:14:54;;;;;;;9.40;8.70;;;;;;;11.08;68.69;101238.47;6308091;22;20034;-76
2021/03/19 02:17:57;;;;;;;10.82;9.75;;;;;;;11.04;69.22;101233.72;6306398;22;20007;-73
2021/03/19 02:21:00;;;;;;;8.73;7.88;;;;;;;11.00;69.18;101236.94;6307604;22;20003;-74
2021/03/19 02:24:03;;;;;;;8.98;8.30;;;;;;;10.98;69.43;101236.38;6284945;22;20015;-75
2021/03/19 02:27:06;;;;;;;9.02;8.02;;;;;;;10.97;69.35;101233.91;6282732;22;20019;-74
2021/03/19 02:30:08;;;;;;;7.82;7.20;;;;;;;10.97;69.29;101245.66;6304435;22;20818;-75
2021/03/19 02:32:34;;;;;;;8.13;7.55;;;;;;;10.95;69.64;101236.03;6313930;22;20023;-74
2021/03/19 02:35:05;;;;;;;7.35;6.75;;;;;;;10.94;69.47;101228.91;6305767;22;20014;-74
2021/03/19 02:37:34;;;;;;;5.13;4.93;;;;;;;10.94;69.96;101235.22;6281623;22;20003;-74
2021/03/19 02:40:01;;;;;;;5.25;4.90;;;;;;;10.91;69.28;101230.25;6279930;22;20089;-73
2021/03/19 02:42:30;;;;;;;4.60;4.28;;;;;;;10.90;68.96;101230.50;6284142;22;20019;-74
2021/03/19 02:44:57;;;;;;;4.78;4.18;;;;;;;10.83;68.87;101233.38;6276649;22;20010;-73
2021/03/19 02:47:22;;;;;;;4.40;4.07;;;;;;;10.80;68.93;101234.69;6281792;22;20003;-75
2021/03/19 02:49:51;;;;;;;4.40;3.20;;;;;;;10.70;68.47;101222.75;6283109;22;20003;-73
2021/03/19 02:52:19;;;;;;;3.60;3.40;;;;;;;10.75;68.50;101231.06;6255237;22;20014;-74
2021/03/19 02:54:45;;;;;;;2.55;2.45;;;;;;;10.80;68.71;101240.16;6304793;22;20003;-74
2021/03/19 02:57:10;;;;;;;2.05;1.95;;;;;;;10.83;69.02;101238.84;6275570;22;20333;-75
2021/03/19 02:59:36;;;;;;;2.60;2.50;;;;;;;10.82;68.76;101232.56;6274858;22;20260;-74
2021/03/19 03:02:01;;;;;;;2.20;2.10;;;;;;;10.82;68.46;101229.00;6306886;22;20019;-73
2021/03/19 03:04:27;;;;;;;1.40;1.40;;;;;;;10.85;68.43;101227.66;6299936;22;19999;-75
2021/03/19 03:06:56;;;;;;;1.85;1.75;;;;;;;10.82;68.01;101223.53;6307672;22;20010;-73
2021/03/19 03:09:26;;;;;;;1.70;1.60;;;;;;;10.80;67.59;101220.19;6303221;22;20000;-74
2021/03/19 03:11:52;;;;;;;1.30;1.30;;;;;;;10.82;67.47;101226.28;6307410;22;20003;-74
2021/03/19 03:14:22;;;;;;;1.63;1.52;;;;;;;10.79;67.74;101229.47;6305077;22;20031;-74
2021/03/19 03:16:48;;;;;;;1.58;1.48;;;;;;;10.78;67.31;101230.56;6304334;22;20441;-74
2021/03/19 03:19:19;;;;;;;2.15;1.50;;;;;;;10.79;67.58;101232.22;6306494;22;20007;-75
2021/03/19 03:21:45;;;;;;;3.83;1.35;;;;;;;10.72;68.25;101223.34;6304326;22;20010;-73
2021/03/19 03:24:13;;;;;;;1.48;1.40;;;;;;;10.70;67.86;101231.78;6280202;22;20345;-73
2021/03/19 03:26:39;;;;;;;2.13;1.60;;;;;;;10.70;68.60;101228.22;6302936;22;20014;-75
2021/03/19 03:29:06;;;;;;;1.65;1.55;;;;;;;10.67;68.48;101235.03;6279738;22;20007;-76
2021/03/19 03:31:32;;;;;;;2.05;1.60;;;;;;;10.62;68.41;101229.47;6302246;22;20022;-73
2021/03/19 03:33:57;;;;;;;2.05;1.25;;;;;;;10.55;68.48;101232.34;6304992;22;20002;-74
2021/03/19 03:36:23;;;;;;;1.65;1.55;;;;;;;10.45;68.68;101232.16;6307180;22;20037;-75
2021/03/19 03:38:49;;;;;;;1.20;1.10;;;;;;;10.42;68.99;101222.56;6308616;22;20010;-73
2021/03/19 03:41:19;;;;;;;1.35;1.30;;;;;;;10.42;69.18;101229.94;6307571;22;20092;-75
2021/03/19 03:43:45;;;;;;;1.05;1.05;;;;;;;10.38;68.73;101226.03;6306399;22;20022;-74
2021/03/19 03:46:15;;;;;;;1.00;1.00;;;;;;;10.42;68.62;101246.34;6306961;22;20398;-73
2021/03/19 03:48:41;;;;;;;0.93;0.93;;;;;;;10.37;68.00;101240.78;6301789;22;19999;-72
2021/03/19 03:51:09;;;;;;;0.90;0.90;;;;;;;10.38;68.13;101234.22;6308989;22;20312;-73
2021/03/19 03:53:36;;;;;;;0.88;0.88;;;;;;;10.40;67.44;101253.97;6281801;22;20007;-72
2021/03/19 03:56:03;;;;;;;0.80;0.70;;;;;;;10.36;68.12;101261.81;6300667;22;20018;-72
2021/03/19 03:58:28;;;;;;;0.57;0.57;;;;;;;10.35;67.29;101260.16;6311138;22;20095;-75
2021/03/19 04:00:54;;;;;;;1.35;1.10;;;;;;;10.36;68.01;101266.47;6314697;22;20375;-72
2021/03/19 04:03:19;;;;;;;0.90;0.90;;;;;;;10.35;68.24;101270.25;6309143;22;20035;-74
2021/03/19 04:05:49;;;;;;;1.65;1.05;;;;;;;10.26;68.57;101267.06;6282124;22;20459;-75
2021/03/19 04:08:21;;;;;;;1.48;0.90;;;;;;;10.25;69.24;101277.16;6303123;22;20037;-76
2021/03/19 04:10:48;;;;;;;0.90;0.68;;;;;;;10.18;69.64;101273.75;6279733;22;20003;-76
2021/03/19 04:13:13;;;;;;;0.93;0.73;;;;;;;10.14;69.60;101269.81;6281156;22;20015;-77
2021/03/19 04:15:43;;;;;;;1.00;1.00;;;;;;;10.09;70.21;101273.28;6309885;22;20012;-75
2021/03/19 04:18:13;;;;;;;1.00;1.00;;;;;;;10.01;70.33;101265.47;6269578;22;20007;-78
2021/03/19 04:20:40;;;;;;;3.63;1.05;;;;;;;9.95;70.82;101264.53;6308791;22;20003;-78
2021/03/19 04:23:06;;;;;;;0.85;0.85;;;;;;;9.90;71.15;101269.91;6310312;22;20023;-77
2021/03/19 04:25:32;;;;;;;0.93;0.93;;;;;;;9.86;70.65;101273.34;6281921;22;20005;-75
2021/03/19 04:28:03;;;;;;;1.40;1.30;;;;;;;9.84;71.43;101265.41;6311530;22;20030;-75
2021/03/19 04:30:36;;;;;;;1.10;1.10;;;;;;;9.85;70.73;101267.03;6312141;22;19995;-75
2021/03/19 04:33:03;;;;;;;1.45;1.35;;;;;;;9.88;70.02;101266.56;6280791;22;20010;-76
2021/03/19 04:35:30;;;;;;;0.98;0.98;;;;;;;9.89;69.55;101267.41;6309834;22;20076;-76
2021/03/19 04:38:00;;;;;;;0.55;0.55;;;;;;;9.89;69.74;101267.41;6312841;22;20014;-75
2021/03/19 04:40:26;;;;;;;0.95;0.95;;;;;;;9.93;69.75;101284.97;6279850;22;20024;-75
2021/03/19 04:42:53;;;;;;;0.68;0.68;;;;;;;9.90;69.19;101280.81;6306938;22;20010;-76
2021/03/19 04:45:19;;;;;;;0.90;0.90;;;;;;;9.87;69.23;101289.50;6281287;22;20426;-73
2021/03/19 04:47:45;;;;;;;1.05;0.95;;;;;;;9.89;69.43;101290.09;6279686;22;20030;-75
2021/03/19 04:50:12;;;;;;;0.77;0.77;;;;;;;9.91;68.24;101293.38;6306327;22;20425;-74
2021/03/19 04:52:38;;;;;;;0.60;0.60;;;;;;;9.94;68.13;101303.88;6300697;22;20098;-74
2021/03/19 04:55:06;;;;;;;0.90;0.90;;;;;;;9.96;68.06;101295.44;6305790;22;20003;-75
2021/03/19 04:57:32;;;;;;;0.70;0.70;;;;;;;9.96;68.57;101296.25;6305193;22;20038;-74
2021/03/19 04:59:58;;;;;;;1.05;1.05;;;;;;;9.96;67.99;101301.72;6305379;22;19995;-73
2021/03/19 05:02:32;;;;;;;0.80;0.80;;;;;;;9.93;67.90;101313.13;6305464;22;20022;-73
2021/03/19 05:04:57;;;;;;;0.98;0.98;;;;;;;9.91;68.35;101307.06;6305126;22;20368;-75
2021/03/19 05:07:23;;;;;;;1.00;0.90;;;;;;;9.85;68.33;101313.47;6303916;22;20008;-72
2021/03/19 05:09:48;;;;;;;0.90;0.90;;;;;;;9.84;68.38;101308.25;6274517;22;20031;-73
2021/03/19 05:12:14;;;;;;;1.30;1.20;;;;;;;9.83;68.69;101315.63;6284489;22;20007;-72
2021/03/19 05:14:39;;;;;;;1.63;1.52;;;;;;;9.80;69.41;101318.84;6312990;22;20006;-74
2021/03/19 05:17:05;;;;;;;1.38;1.30;;;;;;;9.79;68.85;101325.38;6309936;22;20007;-72
2021/03/19 05:19:30;;;;;;;2.00;1.90;;;;;;;9.79;69.60;101325.38;6282347;22;20244;-73
2021/03/19 05:21:55;;;;;;;1.77;1.67;;;;;;;9.76;69.38;101329.41;6305033;22;20010;-74
2021/03/19 05:24:21;;;;;;;1.63;1.63;;;;;;;9.76;69.54;101323.94;6312489;22;20015;-74
2021/03/19 05:26:46;;;;;;;1.60;1.50;;;;;;;9.73;69.67;101340.00;6284696;22;20003;-73
2021/03/19 05:29:13;;;;;;;4.13;1.75;;;;;;;9.69;69.11;101336.06;6320166;22;20008;-74
2021/03/19 05:31:40;;;;;;;1.33;1.33;;;;;;;9.60;69.48;101335.59;6313769;22;20089;-72
2021/03/19 05:34:07;;;;;;;1.65;1.55;;;;;;;9.61;69.78;101343.53;6309434;22;20414;-74
2021/03/19 05:36:33;;;;;;;1.30;1.30;;;;;;;9.58;68.96;101344.03;6306714;22;20011;-72
2021/03/19 05:39:00;;;;;;;1.42;1.33;;;;;;;9.54;68.52;101342.00;6310200;22;19999;-73
2021/03/19 05:41:28;;;;;;;0.90;0.90;;;;;;;9.50;69.08;101338.91;6307116;22;20007;-72
2021/03/19 05:43:59;;;;;;;1.70;1.60;;;;;;;9.45;69.20;101349.72;6279767;22;20037;-74
2021/03/19 05:46:35;;;;;;;1.73;1.20;;;;;;;9.35;68.58;101349.47;6277114;22;20014;-73
2021/03/19 05:49:04;;;;;;;1.10;0.95;;;;;;;9.28;69.53;101354.19;6277218;22;20003;-75
2021/03/19 05:51:39;;;;;;;0.90;0.90;;;;;;;9.21;69.19;101370.66;6309953;22;20330;-73
2021/03/19 05:54:23;;;;;;;0.85;0.85;;;;;;;9.16;68.88;101371.38;6284215;22;19999;-74
2021/03/19 05:57:27;;;;;;;1.27;1.17;;;;;;;9.12;69.02;101372.91;6313348;22;19999;-73
2021/03/19 05:59:56;;;;;;;0.90;0.90;;;;;;;9.09;69.23;101373.38;6230093;22;20046;-73
2021/03/19 06:02:33;;;;;;;1.27;1.20;;;;;;;9.07;69.42;101381.78;6308890;22;20015;-73
2021/03/19 06:05:14;;;;;;;1.35;1.35;;;;;;;9.06;70.19;101373.84;6309674;22;20035;-73
2021/03/19 06:07:51;;;;;;;1.17;1.17;;;;;;;8.97;69.78;101380.69;6308702;22;20076;-73
2021/03/19 06:10:29;;;;;;;1.35;1.35;;;;;;;8.97;70.60;101386.16;6280752;22;20014;-74
2021/03/19 06:13:04;;;;;;;1.10;1.10;;;;;;;8.95;69.84;101377.34;6282978;22;20064;-74
2021/03/19 06:15:33;;;;;;;1.33;1.33;;;;;;;8.97;70.24;101386.16;6310112;22;20003;-74
2021/03/19 06:18:02;;;;;;;1.33;1.30;;;;;;;8.99;70.48;101386.75;6308957;22;20003;-73
2021/03/19 06:20:29;;;;;;;1.42;1.33;;;;;;;8.99;71.73;101389.47;6278680;22;20406;-74
2021/03/19 06:22:54;;;;;;;1.10;1.10;;;;;;;9.00;70.61;101385.69;6303753;22;20007;-74
2021/03/19 06:25:43;;;;;;;1.60;1.50;;;;;;;9.03;71.02;101390.69;6309779;22;20065;-73
2021/03/19 06:28:30;;;;;;;1.10;1.10;;;;;;;9.09;71.12;101389.75;6331860;22;20007;-74
2021/03/19 06:31:19;;;;;;;1.00;1.00;;;;;;;9.13;71.88;101390.94;6308580;22;20007;-75
2021/03/19 06:33:46;;;;;;;0.93;0.93;;;;;;;9.10;71.30;101391.41;6308641;22;20017;-75
2021/03/19 06:36:13;;;;;;;0.88;0.80;;;;;;;9.11;71.43;101393.06;6308919;22;20007;-74
2021/03/19 06:38:42;;;;;;;0.82;0.82;;;;;;;9.13;71.34;101396.41;6277935;22;19999;-75
2021/03/19 06:41:30;;;;;;;0.57;0.57;;;;;;;9.16;71.31;101406.84;6281129;22;20082;-73
2021/03/19 06:44:21;;;;;;;1.80;0.60;;;;;;;9.17;71.25;101411.25;6307804;22;20086;-74
2021/03/19 06:46:48;;;;;;;1.08;0.98;;;;;;;9.18;72.00;101415.63;6279398;22;20030;-73
2021/03/19 06:49:15;;;;;;;2.83;0.77;;;;;;;9.20;71.97;101418.97;6306095;22;20000;-75
2021/03/19 06:51:47;;;;;;;0.60;0.60;;;;;;;9.22;71.55;101422.28;6306115;22;20539;-74
2021/03/19 06:54:16;;;;;;;0.77;0.77;;;;;;;9.21;71.70;101426.09;6296666;22;20082;-74
2021/03/19 06:57:02;;;;;;;0.68;0.68;;;;;;;9.28;72.29;101434.19;6302096;22;20014;-73
2021/03/19 06:59:38;;;;;;;0.60;0.60;;;;;;;9.26;71.90;101428.13;6302491;22;20322;-74
2021/03/19 07:02:37;;;;;;;0.60;0.60;;;;;;;9.31;72.42;101432.88;6308714;22;20018;-73
2021/03/19 07:05:31;;;;;;;0.50;0.50;;;;;;;9.34;72.02;101435.97;6248718;22;20018;-73
2021/03/19 07:08:34;;;;;;;0.50;0.50;;;;;;;9.40;71.66;101439.66;6305419;22;19999;-76
2021/03/19 07:11:08;;;;;;;0.60;0.47;;;;;;;9.42;71.79;101438.38;6306492;22;20738;-77
2021/03/19 07:13:45;;;;;;;0.47;0.43;;;;;;;9.49;72.32;101442.88;6298248;22;20426;-73
2021/03/19 07:16:18;;;;;;;1.75;0.60;;;;;;;9.52;71.90;101443.28;6277029;22;20014;-74
2021/03/19 07:18:55;;;;;;;0.50;0.50;;;;;;;9.55;72.49;101450.13;6306986;22;20410;-71
2021/03/19 07:21:32;;;;;;;0.60;0.60;;;;;;;9.60;71.51;101451.09;6305118;22;19999;-72
2021/03/19 07:24:25;;;;;;;0.85;0.85;;;;;;;9.59;72.47;101446.72;6305790;22;20420;-73
2021/03/19 07:26:54;;;;;;;0.52;0.52;;;;;;;9.61;71.86;101460.97;6302544;22;20007;-73
2021/03/19 07:29:31;;;;;;;0.82;0.60;;;;;;;9.65;72.12;101453.16;6306914;22;20030;-73
2021/03/19 07:32:24;;;;;;;0.63;0.63;;;;;;;9.68;72.04;101449.97;6279329;22;20003;-74
2021/03/19 07:34:53;;;;;;;0.38;0.30;;;;;;;9.70;72.29;101449.72;6307486;22;20003;-73
2021/03/19 07:37:56;;;;;;;0.52;0.52;;;;;;;9.78;71.86;101454.81;6305148;22;20610;-74
2021/03/19 07:40:50;;;;;;;0.47;0.47;;;;;;;9.79;71.72;101467.41;6309151;22;20057;-74
2021/03/19 07:43:44;;;;;;;2.83;0.50;;;;;;;9.82;71.83;101464.22;6245471;22;20007;-73
2021/03/19 07:46:25;;;;;;;0.40;0.40;;;;;;;9.86;71.85;101459.13;6280729;22;20002;-73
2021/03/19 07:48:57;;;;;;;1.05;0.70;;;;;;;9.87;71.68;101467.09;6308360;22;20003;-74
2021/03/19 07:51:45;;;;;;;0.40;0.40;;;;;;;9.96;71.84;101464.84;6276031;22;20003;-72
2021/03/19 07:54:29;;;;;;;0.55;0.55;;;;;;;9.99;71.82;101474.44;6280570;22;20011;-73
2021/03/19 07:57:09;;;;;;;0.50;0.50;;;;;;;10.06;71.70;101476.00;6281627;22;20003;-73
2021/03/19 07:59:45;;;;;;;0.65;0.65;;;;;;;10.11;71.15;101480.75;6307677;22;20002;-74
2021/03/19 08:02:33;;;;;;;0.40;0.40;;;;;;;10.06;71.27;101480.63;6258837;22;20024;-74
2021/03/19 08:05:19;;;;;;;0.57;0.57;;;;;;;10.01;72.05;101483.25;6247833;22;20070;-75
2021/03/19 08:07:50;;;;;;;0.55;0.55;;;;;;;9.95;71.98;101488.56;6246207;22;20022;-73
2021/03/19 08:10:47;;;;;;;0.68;0.68;;;;;;;9.86;72.85;101487.25;6247458;22;20007;-77
2021/03/19 08:13:38;;;;;;;0.40;0.30;;;;;;;9.95;72.75;101502.25;6189537;23;20023;-76
2021/03/19 08:16:17;;;;;;;0.60;0.60;;;;;;;9.98;nan;101505.59;6254254;22;20016;-76
2021/03/19 08:18:51;;;;;;;0.55;0.55;;;;;;;10.01;73.20;101510.56;6254740;23;20038;-75
2021/03/19 08:21:30;;;;;;;0.40;0.40;;;;;;;10.01;72.77;101505.09;6253086;23;20063;-75
2021/03/19 08:24:11;;;;;;;0.63;0.60;;;;;;;10.06;72.44;101507.94;6255035;22;20007;-78
2021/03/19 08:26:56;;;;;;;0.50;0.50;;;;;;;10.00;72.87;101509.72;6253951;23;20014;-75
2021/03/19 08:30:02;;;;;;;0.60;0.60;;;;;;;9.98;73.34;101511.06;6250702;22;20004;-75
2021/03/19 08:32:43;;;;;;;;;;;;;;;10.10;73.43;101520.09;6241978;22;20000;-74
2021/03/19 08:35:24;;;;;;;0.30;0.30;;;;;;;10.13;72.70;101519.59;6246870;23;19931;-75
2021/03/19 08:38:26;;;;;;;0.68;0.68;;;;;;;10.37;73.25;101519.66;6239148;23;20004;-75
2021/03/19 08:41:05;;;;;;;0.68;0.40;;;;;;;10.60;72.57;101519.66;6252722;23;19992;-75
2021/03/19 08:43:53;;;;;;;0.30;0.30;;;;;;;10.78;71.47;101518.66;6249219;23;20334;-75
2021/03/19 08:46:38;;;;;;;0.20;0.20;;;;;;;10.80;70.98;101529.38;6250409;22;20015;-75
2021/03/19 08:49:11;;;;;;;0.20;0.20;;;;;;;10.81;71.84;101528.31;6253945;22;20004;-75
2021/03/19 08:51:40;;;;;;;0.17;0.17;;;;;;;10.82;71.03;101511.66;6258545;22;20031;-74
2021/03/19 08:54:12;;;;;;;0.70;0.30;;;;;;;10.84;70.84;101519.63;6242539;22;19999;-74
2021/03/19 08:56:45;;;;;;;0.30;0.30;;;;;;;10.74;70.56;101520.22;6250841;22;20046;-73
2021/03/19 08:59:33;;;;;;;0.25;0.25;;;;;;;10.69;71.12;101514.66;6253149;23;20485;-76
2021/03/19 09:02:01;;;;;;;0.20;0.20;;;;;;;10.68;71.44;101525.84;6250412;22;20100;-74
2021/03/19 09:04:58;;;;;;;0.28;0.28;;;;;;;10.80;71.61;101534.84;6248835;22;20007;-73
2021/03/19 09:07:41;;;;;;;0.20;0.20;;;;;;;10.90;71.35;101535.06;6243175;23;20008;-74
2021/03/19 09:10:18;;;;;;;0.40;0.40;;;;;;;11.13;70.76;101522.41;6254155;23;20008;-75
2021/03/19 09:12:56;;;;;;;0.40;0.40;;;;;;;11.31;70.20;101535.06;6252968;22;20065;-75
2021/03/19 09:15:23;;;;;;;0.63;0.30;;;;;;;11.42;69.72;101538.81;6249620;22;20004;-75
2021/03/19 09:17:55;;;;;;;0.10;0.10;;;;;;;11.57;68.96;101541.88;6250676;22;20028;-75
2021/03/19 09:20:41;;;;;;;0.20;0.13;;;;;;;11.70;67.91;101544.28;6241350;23;20054;-76
2021/03/19 09:23:09;;;;;;;;;;;;;;;12.01;67.80;101550.34;6250926;23;20007;-73
2021/03/19 09:25:45;;;;;;;0.25;0.25;;;;;;;12.01;67.21;101555.00;6249544;22;19927;-77
2021/03/19 09:28:10;;;;;;;;;;;;;;;12.28;66.83;101559.81;6247560;23;20449;-75
2021/03/19 09:30:59;;;;;;;0.20;0.20;;;;;;;12.39;66.75;101562.47;6252622;23;19907;-77
2021/03/19 09:34:02;;;;;;;0.17;0.17;;;;;;;13.07;67.14;101570.59;6253998;23;20000;-78
2021/03/19 09:36:55;;;;;;;2.45;0.20;;;;;;;13.50;64.57;101564.53;6224519;22;20054;-78
2021/03/19 09:39:45;;;;;;;0.30;0.20;;;;;;;13.82;63.33;101572.00;6249165;23;20072;-78
2021/03/19 09:42:17;;;;;;;0.10;0.10;;;;;;;14.09;62.41;101572.81;6254384;22;20370;-76
2021/03/19 09:44:48;;;;;;;0.13;0.10;;;;;;;14.42;61.26;101562.59;6249865;23;20018;-76
2021/03/19 09:47:18;;;;;;;0.20;0.20;;;;;;;14.67;58.94;101569.41;6248878;23;20019;-77
2021/03/19 09:49:46;;;;;;;0.30;0.10;;;;;;;14.78;59.49;101573.06;6252515;22;20004;-79
2021/03/19 09:52:13;;;;;;;0.00;0.00;;;;;;;14.88;59.33;101586.06;6245960;23;20004;-78
2021/03/19 09:54:39;;;;;;;0.43;0.43;;;;;;;14.77;58.03;101587.94;6226884;23;20028;-76
2021/03/19 09:57:23;;;;;;;2.50;0.85;;;;;;;14.51;59.00;101595.16;6245458;23;20030;-74
2021/03/19 10:00:27;;;;;;;7.82;2.65;;;;;;;14.08;59.89;101581.34;6248586;22;19999;-76
2021/03/19 10:02:52;;;;;;;2.97;2.03;;;;;;;13.81;60.30;101586.84;6270897;22;20070;-75
2021/03/19 10:05:37;;;;;;;14.75;3.33;;;;;;;13.90;60.89;101582.53;6251773;23;20012;-76
2021/03/19 10:08:04;;;;;;;2.33;0.70;;;;;;;14.09;60.82;101589.31;6249991;23;20022;-76
2021/03/19 10:10:36;;;;;;;0.28;0.20;;;;;;;14.54;60.10;101602.88;6255252;23;20415;-77
2021/03/19 10:13:21;;;;;;;0.15;0.15;;;;;;;14.99;60.40;101598.78;6250756;23;20000;-76
2021/03/19 10:15:54;;;;;;;0.15;0.15;;;;;;;15.97;60.16;101596.38;6247417;22;20011;-76
2021/03/19 10:18:26;;;;;;;0.10;0.10;;;;;;;16.73;57.16;101594.72;6247735;22;20046;-75
2021/03/19 10:20:59;;;;;;;0.10;0.10;;;;;;;17.25;54.49;101598.19;6241384;23;19996;-78
2021/03/19 10:23:39;;;;;;;0.00;0.00;;;;;;;17.56;52.90;101584.22;6248547;23;20004;-76
2021/03/19 10:26:24;;;;;;;0.15;0.15;;;;;;;17.56;52.17;101595.28;6248667;23;20083;-75
2021/03/19 10:29:10;;;;;;;0.00;0.00;;;;;;;17.96;52.81;101588.69;6250905;23;20138;-79
2021/03/19 10:31:44;;;;;;;0.00;0.00;;;;;;;18.86;52.68;101602.31;6249689;23;20233;-78
2021/03/19 10:34:23;;;;;;;0.00;0.00;;;;;;;19.51;51.30;101603.78;6246788;22;20008;-78
2021/03/19 10:36:49;;;;;;;0.00;0.00;;;;;;;19.71;48.86;101614.59;6245044;23;20032;-77
2021/03/19 10:39:48;;;;;;;0.00;0.00;;;;;;;19.65;46.58;101604.66;6246958;22;19999;-77
2021/03/19 10:42:47;;;;;;;0.10;0.00;;;;;;;19.25;45.68;101606.88;6246404;23;20008;-76
2021/03/19 10:45:18;;;;;;;0.10;0.10;;;;;;;18.90;45.87;101610.91;6250015;22;20066;-76
2021/03/19 10:48:11;;;;;;;0.10;0.00;;;;;;;18.83;46.62;101608.44;6249391;23;20008;-78
2021/03/19 10:50:50;;;;;;;0.00;0.00;;;;;;;18.62;46.11;101603.09;6254354;23;19996;-78
2021/03/19 10:53:25;;;;;;;0.00;0.00;;;;;;;18.28;45.95;101609.50;6256060;22;20024;-78
2021/03/19 10:56:05;;;;;;;0.15;0.00;;;;;;;18.28;47.11;101608.66;6255022;23;20029;-81
2021/03/19 10:58:53;;;;;;;0.00;0.00;;;;;;;18.61;46.34;101614.47;6256101;23;20034;-81
2021/03/19 11:01:47;;;;;;;0.00;0.00;;;;;;;18.71;45.42;101619.09;6255142;22;20024;-78
2021/03/19 11:04:34;;;;;;;0.00;0.00;;;;;;;18.59;45.96;101623.06;6255075;23;20012;-81
2021/03/19 11:07:29;;;;;;;0.13;0.00;;;;;;;18.58;46.00;101621.41;6255456;23;20004;-78
2021/03/19 11:10:26;;;;;;;0.00;0.00;;;;;;;18.35;45.13;101622.16;6255049;22;20062;-77
2021/03/19 11:12:53;;;;;;;0.00;0.00;;;;;;;18.00;45.44;101618.56;6205083;22;20018;-79
2021/03/19 11:15:25;;;;;;;0.00;0.00;;;;;;;17.99;46.03;101626.03;6254445;23;20039;-80
2021/03/19 11:18:13;;;;;;;0.08;0.08;;;;;;;18.08;45.61;101631.81;6258478;22;20004;-80
2021/03/19 11:20:41;;;;;;;0.13;0.00;;;;;;;17.76;45.63;101616.47;6254219;23;20415;-79
2021/03/19 11:23:38;;;;;;;0.00;0.00;;;;;;;17.54;45.27;101636.22;6254751;23;20000;-79
2021/03/19 11:26:29;;;;;;;0.00;0.00;;;;;;;17.31;45.66;101643.22;6253337;23;20004;-79
2021/03/19 11:29:12;;;;;;;0.00;0.00;;;;;;;17.00;46.36;101627.56;6253659;23;20012;-76
2021/03/19 11:32:03;;;;;;;0.00;0.00;;;;;;;16.87;46.89;101634.50;6249903;22;20004;-76
2021/03/19 11:34:35;;;;;;;0.00;0.00;;;;;;;16.58;47.18;101632.28;6250178;23;20003;-75
2021/03/19 11:37:14;;;;;;;0.00;0.00;;;;;;;16.42;46.63;101630.63;6249980;23;20019;-77
2021/03/19 11:40:00;;;;;;;0.00;0.00;;;;;;;16.07;47.36;101643.31;6251603;22;20003;-78
2021/03/19 11:42:40;;;;;;;0.10;0.10;;;;;;;15.63;48.56;101624.41;6253581;23;19996;-77
2021/03/19 11:45:23;;;;;;;0.00;0.00;;;;;;;15.69;48.69;101642.63;6254280;23;20031;-78
2021/03/19 11:47:57;;;;;;;0.05;0.05;;;;;;;15.63;48.93;101643.72;6252616;22;20011;-77
2021/03/19 11:50:28;;;;;;;0.20;0.00;;;;;;;15.56;48.49;101643.16;6250193;22;20004;-78
2021/03/19 11:53:18;;;;;;;0.00;0.00;;;;;;;15.44;48.80;101641.44;6244248;23;20004;-79
2021/03/19 11:55:48;;;;;;;0.08;0.00;;;;;;;15.26;48.59;101639.13;6240327;23;20003;-79
2021/03/19 11:58:26;;;;;;;0.00;0.00;;;;;;;15.00;49.38;101641.78;6246412;23;20007;-76
2021/03/19 12:00:52;;;;;;;0.10;0.10;;;;;;;14.72;49.65;101624.53;6243924;22;19996;-79
2021/03/19 12:03:21;;;;;;;0.00;0.00;;;;;;;14.64;50.48;101650.59;6245482;22;20333;-79
2021/03/19 12:05:47;;;;;;;0.00;0.00;;;;;;;14.51;50.57;101636.44;6250008;23;20018;-78
2021/03/19 12:08:12;;;;;;;0.32;0.10;;;;;;;14.49;51.03;101640.28;6219641;23;20028;-76